createdAt,value
2017-12-10T00:01:28.409Z,96326.83
2017-12-10T00:03:54.494Z,96331.23
2017-12-10T00:06:20.598Z,96324.35
2017-12-10T00:08:46.655Z,96323.43
2017-12-10T00:11:12.779Z,96323.70
2017-12-10T00:13:38.863Z,96308.38
2017-12-10T00:16:04.998Z,96305.61
2017-12-10T00:18:31.034Z,96313.66
2017-12-10T00:20:57.089Z,96318.95
2017-12-10T00:23:23.126Z,96311.31
2017-12-10T00:25:49.170Z,96312.34
2017-12-10T00:28:15.206Z,96302.83
2017-12-10T00:30:41.214Z,96298.33
2017-12-10T00:33:07.245Z,96296.73
2017-12-10T00:35:33.322Z,96293.99
2017-12-10T00:37:59.366Z,96294.63
2017-12-10T00:40:25.490Z,96305.87
2017-12-10T00:42:51.536Z,96298.66
2017-12-10T00:45:17.577Z,96295.18
2017-12-10T00:47:43.598Z,96292.45
2017-12-10T00:50:09.690Z,96296.61
2017-12-10T00:52:35.755Z,96295.44
2017-12-10T00:55:01.776Z,96282.73
2017-12-10T00:57:28.689Z,96289.41
2017-12-10T00:59:54.757Z,96287.20
2017-12-10T01:02:20.915Z,96292.18
2017-12-10T01:04:47.005Z,96276.24
2017-12-10T01:07:13.042Z,96271.05
2017-12-10T01:09:39.142Z,96264.94
2017-12-10T01:12:05.170Z,96263.59
2017-12-10T01:14:31.231Z,96265.28
2017-12-10T01:16:57.285Z,96262.55
2017-12-10T01:19:23.358Z,96255.94
2017-12-10T01:21:49.410Z,96251.53
2017-12-10T01:24:15.518Z,96249.20
2017-12-10T01:26:41.555Z,96252.95
2017-12-10T01:29:07.597Z,96244.94
2017-12-10T01:31:33.738Z,96251.42
2017-12-10T01:33:59.782Z,96241.43
2017-12-10T01:36:25.814Z,96235.12
2017-12-10T01:38:51.859Z,96234.43
2017-12-10T01:41:17.871Z,96232.75
2017-12-10T01:43:43.870Z,96232.88
2017-12-10T01:46:09.894Z,96222.89
2017-12-10T01:48:35.944Z,96214.90
2017-12-10T01:51:02.042Z,96213.59
2017-12-10T01:53:28.114Z,96218.14
2017-12-10T01:55:54.166Z,96221.77
2017-12-10T01:58:20.199Z,96217.88
2017-12-10T02:00:46.370Z,96214.73
2017-12-10T02:03:12.437Z,96218.88
2017-12-10T02:05:38.522Z,96213.59
2017-12-10T02:08:04.574Z,96200.59
2017-12-10T02:10:30.595Z,96190.34
2017-12-10T02:12:56.680Z,96186.98
2017-12-10T02:15:22.683Z,96180.50
2017-12-10T02:17:48.768Z,96175.19
2017-12-10T02:20:14.821Z,96173.50
2017-12-10T02:22:40.848Z,96166.63
2017-12-10T02:25:07.843Z,96160.80
2017-12-10T02:27:33.878Z,96150.28
2017-12-10T02:29:59.978Z,96139.62
2017-12-10T02:32:26.026Z,96136.37
2017-12-10T02:34:52.094Z,96137.67
2017-12-10T02:37:18.189Z,96128.72
2017-12-10T02:39:44.210Z,96126.27
2017-12-10T02:42:10.250Z,96121.98
2017-12-10T02:44:36.369Z,96125.58
2017-12-10T02:47:02.455Z,96122.84
2017-12-10T02:49:28.502Z,96120.77
2017-12-10T02:51:56.282Z,96116.77
2017-12-10T02:54:22.372Z,96106.65
2017-12-10T02:56:48.456Z,96103.23
2017-12-10T02:59:14.527Z,96099.59
2017-12-10T03:01:40.590Z,96090.39
2017-12-10T03:04:06.620Z,96096.97
2017-12-10T03:06:32.749Z,96088.45
2017-12-10T03:08:58.849Z,96084.25
2017-12-10T03:11:24.947Z,96086.20
2017-12-10T03:13:51.022Z,96082.13
2017-12-10T03:16:17.149Z,96075.63
2017-12-10T03:18:44.229Z,96080.95
2017-12-10T03:21:10.286Z,96070.47
2017-12-10T03:23:36.362Z,96064.72
2017-12-10T03:26:02.405Z,96065.24
2017-12-10T03:28:28.551Z,96057.60
2017-12-10T03:30:54.596Z,96044.91
2017-12-10T03:33:20.621Z,96050.94
2017-12-10T03:35:46.677Z,96046.84
2017-12-10T03:38:12.767Z,96047.56
2017-12-10T03:40:38.866Z,96051.09
2017-12-10T03:43:04.951Z,96046.77
2017-12-10T03:45:31.038Z,96039.41
2017-12-10T03:47:57.134Z,96043.41
2017-12-10T03:50:23.162Z,96037.07
2017-12-10T03:52:49.193Z,96031.05
2017-12-10T03:55:15.242Z,96013.43
2017-12-10T03:57:41.282Z,96015.89
2017-12-10T04:00:07.317Z,96021.98
2017-12-10T04:02:33.431Z,96011.12
2017-12-10T04:04:59.485Z,96007.99
2017-12-10T04:07:25.574Z,96007.36
2017-12-10T04:09:51.650Z,96019.12
2017-12-10T04:12:17.726Z,96019.72
2017-12-10T04:14:43.806Z,96015.37
2017-12-10T04:17:09.897Z,96011.06
2017-12-10T04:19:35.954Z,96011.19
2017-12-10T04:22:02.059Z,96008.59
2017-12-10T04:24:28.096Z,96002.39
2017-12-10T04:26:54.162Z,96003.08
2017-12-10T04:29:20.380Z,96004.72
2017-12-10T04:31:46.467Z,95995.45
2017-12-10T04:34:12.530Z,95986.54
2017-12-10T04:36:38.627Z,95976.33
2017-12-10T04:39:04.736Z,95971.70
2017-12-10T04:41:30.784Z,95960.66
2017-12-10T04:43:56.917Z,95956.37
2017-12-10T04:46:22.967Z,95949.52
2017-12-10T04:48:49.124Z,95955.30
2017-12-10T04:51:15.192Z,95951.58
2017-12-10T04:53:41.251Z,95945.33
2017-12-10T04:56:07.349Z,95936.73
2017-12-10T04:58:33.394Z,95925.61
2017-12-10T05:00:59.461Z,95924.56
2017-12-10T05:03:25.570Z,95925.20
2017-12-10T05:05:51.642Z,95919.66
2017-12-10T05:08:17.800Z,95911.19
2017-12-10T05:10:43.856Z,95912.46
2017-12-10T05:13:09.860Z,95904.91
2017-12-10T05:15:35.902Z,95908.27
2017-12-10T05:18:01.977Z,95898.05
2017-12-10T05:20:28.078Z,95886.66
2017-12-10T05:22:54.163Z,95884.27
2017-12-10T05:25:20.203Z,95886.72
2017-12-10T05:27:46.271Z,95874.38
2017-12-10T05:30:12.308Z,95871.66
2017-12-10T05:32:38.410Z,95872.18
2017-12-10T05:35:04.509Z,95876.55
2017-12-10T05:37:30.609Z,95866.56
2017-12-10T05:39:56.725Z,95858.27
2017-12-10T05:42:22.804Z,95850.19
2017-12-10T05:44:48.893Z,95846.06
2017-12-10T05:47:14.974Z,95844.17
2017-12-10T05:49:41.015Z,95840.10
2017-12-10T05:52:07.102Z,95835.05
2017-12-10T05:54:33.227Z,95826.73
2017-12-10T05:56:59.278Z,95822.07
2017-12-10T05:59:25.361Z,95827.23
2017-12-10T06:01:51.490Z,95827.38
2017-12-10T06:04:17.622Z,95823.23
2017-12-10T06:06:43.665Z,95811.31
2017-12-10T06:09:09.718Z,95812.11
2017-12-10T06:11:35.787Z,95809.07
2017-12-10T06:14:01.982Z,95805.46
2017-12-10T06:16:28.061Z,95793.04
2017-12-10T06:18:54.108Z,95784.28
2017-12-10T06:21:20.151Z,95784.28
2017-12-10T06:23:46.219Z,95775.75
2017-12-10T06:26:12.314Z,95780.79
2017-12-10T06:28:38.371Z,95772.38
2017-12-10T06:31:04.408Z,95771.03
2017-12-10T06:33:30.518Z,95769.73
2017-12-10T06:35:56.560Z,95768.17
2017-12-10T06:38:22.587Z,95766.88
2017-12-10T06:40:48.697Z,95754.52
2017-12-10T06:43:14.770Z,95752.19
2017-12-10T06:45:40.905Z,95748.55
2017-12-10T06:48:06.974Z,95740.78
2017-12-10T06:50:33.023Z,95737.52
2017-12-10T06:52:59.086Z,95736.61
2017-12-10T06:55:25.834Z,95729.34
2017-12-10T06:57:51.895Z,95718.39
2017-12-10T07:00:17.956Z,95701.61
2017-12-10T07:02:44.024Z,95687.16
2017-12-10T07:05:10.106Z,95683.04
2017-12-10T07:07:36.178Z,95676.84
2017-12-10T07:10:02.323Z,95668.96
2017-12-10T07:12:28.421Z,95666.06
2017-12-10T07:14:54.550Z,95664.25
2017-12-10T07:17:20.586Z,95656.63
2017-12-10T07:19:46.666Z,95644.84
2017-12-10T07:22:12.719Z,95635.97
2017-12-10T07:24:38.816Z,95626.84
2017-12-10T07:27:04.969Z,95625.03
2017-12-10T07:29:31.058Z,95618.45
2017-12-10T07:31:57.155Z,95604.14
2017-12-10T07:34:23.239Z,95593.17
2017-12-10T07:36:49.327Z,95587.11
2017-12-10T07:39:15.471Z,95574.39
2017-12-10T07:41:41.510Z,95561.66
2017-12-10T07:44:07.646Z,95556.89
2017-12-10T07:46:33.724Z,95548.63
2017-12-10T07:48:59.834Z,95539.72
2017-12-10T07:51:25.909Z,95522.20
2017-12-10T07:53:51.951Z,95519.75
2017-12-10T07:56:18.033Z,95511.00
2017-12-10T07:58:44.110Z,95510.09
2017-12-10T08:01:10.194Z,95504.15
2017-12-10T08:03:36.246Z,95497.84
2017-12-10T08:06:02.299Z,95493.97
2017-12-10T08:08:28.366Z,95490.20
2017-12-10T08:10:54.432Z,95486.88
2017-12-10T08:13:20.547Z,95483.25
2017-12-10T08:15:46.851Z,95479.22
2017-12-10T08:18:13.142Z,95479.62
2017-12-10T08:20:39.222Z,95458.31
2017-12-10T08:23:05.328Z,95462.84
2017-12-10T08:25:31.457Z,95462.96
2017-12-10T08:27:57.507Z,95449.14
2017-12-10T08:30:23.579Z,95435.86
2017-12-10T08:32:49.729Z,95432.48
2017-12-10T08:35:15.758Z,95424.95
2017-12-10T08:37:41.884Z,95434.27
2017-12-10T08:40:07.967Z,95436.84
2017-12-10T08:42:34.140Z,95428.41
2017-12-10T08:45:00.223Z,95427.11
2017-12-10T08:47:26.310Z,95410.06
2017-12-10T08:49:52.384Z,95402.66
2017-12-10T08:52:18.422Z,95404.22
2017-12-10T08:54:44.607Z,95383.11
2017-12-10T08:57:10.765Z,95381.80
2017-12-10T08:59:37.006Z,95365.65
2017-12-10T09:02:03.160Z,95358.49
2017-12-10T09:04:29.220Z,95347.97
2017-12-10T09:06:55.368Z,95337.20
2017-12-10T09:09:21.435Z,95321.16
2017-12-10T09:11:47.553Z,95324.58
2017-12-10T09:14:13.767Z,95311.84
2017-12-10T09:16:39.811Z,95301.16
2017-12-10T09:19:05.899Z,95290.00
2017-12-10T09:21:31.951Z,95291.09
2017-12-10T09:23:58.020Z,95269.48
2017-12-10T09:26:24.095Z,95258.07
2017-12-10T09:28:50.227Z,95251.53
2017-12-10T09:31:16.212Z,95256.66
2017-12-10T09:33:42.281Z,95238.09
2017-12-10T09:36:08.359Z,95230.41
2017-12-10T09:38:34.422Z,95232.23
2017-12-10T09:41:00.510Z,95234.35
2017-12-10T09:43:26.556Z,95220.64
2017-12-10T09:45:52.650Z,95201.17
2017-12-10T09:48:18.714Z,95202.03
2017-12-10T09:50:44.777Z,95196.90
2017-12-10T09:53:10.971Z,95180.23
2017-12-10T09:55:37.058Z,95172.58
2017-12-10T09:58:03.141Z,95156.38
2017-12-10T10:00:29.233Z,95136.67
2017-12-10T10:02:55.426Z,95120.11
2017-12-10T10:05:21.518Z,95095.88
2017-12-10T10:07:47.621Z,95080.61
2017-12-10T10:10:13.679Z,95072.36
2017-12-10T10:12:39.744Z,95056.58
2017-12-10T10:15:05.810Z,95053.69
2017-12-10T10:17:31.842Z,95047.04
2017-12-10T10:19:57.973Z,95029.66
2017-12-10T10:22:24.265Z,95010.72
2017-12-10T10:24:50.412Z,94996.03
2017-12-10T10:27:16.454Z,94977.73
2017-12-10T10:29:42.622Z,94965.91
2017-12-10T10:32:08.683Z,94955.58
2017-12-10T10:34:34.750Z,94953.42
2017-12-10T10:37:00.811Z,94943.11
2017-12-10T10:39:27.919Z,94926.55
2017-12-10T10:41:54.080Z,94909.13
2017-12-10T10:44:20.227Z,94903.57
2017-12-10T10:46:46.332Z,94886.66
2017-12-10T10:49:12.436Z,94879.99
2017-12-10T10:51:38.633Z,94865.06
2017-12-10T10:54:04.682Z,94850.67
2017-12-10T10:56:30.793Z,94838.05
2017-12-10T10:58:56.850Z,94828.59
2017-12-10T11:01:22.979Z,94818.22
2017-12-10T11:03:49.078Z,94806.52
2017-12-10T11:06:15.311Z,94794.08
2017-12-10T11:08:41.495Z,94788.33
2017-12-10T11:11:07.625Z,94768.39
2017-12-10T11:13:33.869Z,94754.19
2017-12-10T11:15:59.978Z,94758.90
2017-12-10T11:18:26.956Z,94748.87
2017-12-10T11:20:53.404Z,94738.10
2017-12-10T11:23:19.907Z,94730.18
2017-12-10T11:25:46.212Z,94720.08
2017-12-10T11:28:12.393Z,94700.34
2017-12-10T11:30:38.961Z,94694.89
2017-12-10T11:33:05.317Z,94681.31
2017-12-10T11:35:31.571Z,94678.88
2017-12-10T11:37:57.696Z,94662.70
2017-12-10T11:40:24.015Z,94653.44
2017-12-10T11:42:50.236Z,94643.00
2017-12-10T11:45:16.484Z,94633.45
2017-12-10T11:47:42.686Z,94613.16
2017-12-10T11:50:09.173Z,94616.78
2017-12-10T11:52:35.456Z,94599.17
2017-12-10T11:55:01.809Z,94595.98
2017-12-10T11:57:28.108Z,94579.91
2017-12-10T11:59:54.264Z,94575.33
2017-12-10T12:02:20.875Z,94543.73
2017-12-10T12:04:46.917Z,94559.95
2017-12-10T12:07:13.170Z,94554.22
2017-12-10T12:09:39.366Z,94549.50
2017-12-10T12:12:05.454Z,94539.11
2017-12-10T12:14:31.525Z,94518.59
2017-12-10T12:16:57.612Z,94510.45
2017-12-10T12:19:23.787Z,94507.99
2017-12-10T12:21:49.895Z,94504.95
2017-12-10T12:24:15.983Z,94492.06
2017-12-10T12:26:42.139Z,94482.27
2017-12-10T12:29:08.251Z,94470.58
2017-12-10T12:31:34.334Z,94458.55
2017-12-10T12:34:00.406Z,94452.65
2017-12-10T12:36:26.490Z,94447.15
2017-12-10T12:38:52.571Z,94446.47
2017-12-10T12:41:18.757Z,94431.96
2017-12-10T12:43:44.811Z,94437.98
2017-12-10T12:46:10.869Z,94427.58
2017-12-10T12:48:36.982Z,94423.25
2017-12-10T12:51:03.047Z,94416.38
2017-12-10T12:53:29.161Z,94409.80
2017-12-10T12:55:55.315Z,94393.89
2017-12-10T12:58:21.418Z,94385.08
2017-12-10T13:00:47.550Z,94383.34
2017-12-10T13:03:13.710Z,94381.67
2017-12-10T13:05:39.714Z,94360.98
2017-12-10T13:08:05.778Z,94356.33
2017-12-10T13:10:31.851Z,94346.14
2017-12-10T13:12:57.939Z,94331.88
2017-12-10T13:15:24.062Z,94313.92
2017-12-10T13:17:50.171Z,94300.14
2017-12-10T13:20:16.562Z,94277.10
2017-12-10T13:22:42.628Z,94257.47
2017-12-10T13:25:08.898Z,94256.75
2017-12-10T13:27:35.083Z,94241.23
2017-12-10T13:30:01.206Z,94235.52
2017-12-10T13:32:27.286Z,94230.05
2017-12-10T13:34:53.442Z,94226.78
2017-12-10T13:37:19.632Z,94227.42
2017-12-10T13:39:45.715Z,94235.73
2017-12-10T13:42:11.815Z,94239.58
2017-12-10T13:44:39.702Z,94228.64
2017-12-10T13:47:05.857Z,94224.70
2017-12-10T13:49:32.817Z,94201.33
2017-12-10T13:51:58.955Z,94187.32
2017-12-10T13:54:25.213Z,94195.78
2017-12-10T13:56:51.419Z,94181.26
2017-12-10T13:59:17.522Z,94178.06
2017-12-10T14:01:43.771Z,94168.31
2017-12-10T14:04:09.931Z,94157.80
2017-12-10T14:06:36.538Z,94149.10
2017-12-10T14:09:02.686Z,94162.16
2017-12-10T14:11:28.868Z,94173.33
2017-12-10T14:13:54.971Z,94158.36
2017-12-10T14:16:21.309Z,94175.16
2017-12-10T14:18:47.389Z,94168.72
2017-12-10T14:21:13.486Z,94157.51
2017-12-10T14:23:39.583Z,94151.66
2017-12-10T14:26:06.366Z,94166.34
2017-12-10T14:28:32.431Z,94171.58
2017-12-10T14:30:58.494Z,94178.66
2017-12-10T14:33:24.603Z,94177.98
2017-12-10T14:35:50.942Z,94168.56
2017-12-10T14:38:17.067Z,94175.39
2017-12-10T14:40:43.150Z,94186.05
2017-12-10T14:43:09.970Z,94150.09
2017-12-10T14:45:36.122Z,94135.17
2017-12-10T14:48:02.270Z,94126.25
2017-12-10T14:50:28.529Z,94119.18
2017-12-10T14:52:54.846Z,94141.62
2017-12-10T14:55:21.227Z,94154.20
2017-12-10T14:57:47.494Z,94130.70
2017-12-10T15:00:13.615Z,94130.59
2017-12-10T15:02:39.710Z,94136.23
2017-12-10T15:05:05.794Z,94131.38
2017-12-10T15:07:31.871Z,94113.12
2017-12-10T15:09:57.994Z,94112.80
2017-12-10T15:12:24.337Z,94153.20
2017-12-10T15:14:50.412Z,94092.67
2017-12-10T15:17:16.622Z,94110.66
2017-12-10T15:19:42.794Z,94141.63
2017-12-10T15:22:08.862Z,94105.75
2017-12-10T15:24:35.163Z,94111.27
2017-12-10T15:27:01.306Z,94122.39
2017-12-10T15:29:27.389Z,94123.89
2017-12-10T15:31:53.720Z,94110.20
2017-12-10T15:34:20.900Z,94105.12
2017-12-10T15:36:48.108Z,94106.65
2017-12-10T15:39:14.311Z,94104.88
2017-12-10T15:41:40.489Z,94109.82
2017-12-10T15:44:06.624Z,94096.24
2017-12-10T15:46:32.809Z,94099.02
2017-12-10T15:48:59.019Z,94096.94
2017-12-10T15:51:25.074Z,94088.67
2017-12-10T15:53:51.150Z,94072.73
2017-12-10T15:56:17.898Z,94067.86
2017-12-10T15:58:44.206Z,94075.78
2017-12-10T16:01:10.303Z,94078.75
2017-12-10T16:03:45.420Z,94085.33
2017-12-10T16:06:12.395Z,94085.17
2017-12-10T16:08:38.676Z,94083.05
2017-12-10T16:11:05.499Z,94089.81
2017-12-10T16:13:31.630Z,94089.62
2017-12-10T16:15:58.400Z,94088.17
2017-12-10T16:18:24.483Z,94095.86
2017-12-10T16:20:50.690Z,94084.09
2017-12-10T16:23:16.775Z,94098.48
2017-12-10T16:25:42.843Z,94086.59
2017-12-10T16:28:09.090Z,94075.73
2017-12-10T16:30:35.118Z,94085.47
2017-12-10T16:33:01.255Z,94082.80
2017-12-10T16:35:27.372Z,94079.78
2017-12-10T16:37:53.557Z,94093.03
2017-12-10T16:40:19.805Z,94095.39
2017-12-10T16:42:45.929Z,94091.83
2017-12-10T16:45:13.826Z,94106.06
2017-12-10T16:47:39.927Z,94095.02
2017-12-10T16:50:05.963Z,94087.01
2017-12-10T16:52:33.573Z,94096.70
2017-12-10T16:54:59.640Z,94097.91
2017-12-10T16:57:25.779Z,94089.67
2017-12-10T16:59:51.806Z,94089.59
2017-12-10T17:02:18.796Z,94087.93
2017-12-10T17:04:44.902Z,94092.48
2017-12-10T17:07:11.265Z,94100.49
2017-12-10T17:09:38.674Z,94092.42
2017-12-10T17:12:04.819Z,94094.48
2017-12-10T17:14:31.226Z,94098.44
2017-12-10T17:17:06.083Z,94114.58
2017-12-10T17:19:32.186Z,94119.02
2017-12-10T17:21:58.257Z,94110.98
2017-12-10T17:24:24.394Z,94113.84
2017-12-10T17:26:50.595Z,94090.88
2017-12-10T17:29:16.674Z,94093.08
2017-12-10T17:31:42.761Z,94107.41
2017-12-10T17:34:08.886Z,94105.65
2017-12-10T17:36:35.075Z,94107.70
2017-12-10T17:39:01.483Z,94100.22
2017-12-10T17:41:27.850Z,94097.94
2017-12-10T17:43:54.854Z,94083.73
2017-12-10T17:46:21.758Z,94081.62
2017-12-10T17:48:47.944Z,94074.28
2017-12-10T17:51:14.043Z,94078.45
2017-12-10T17:53:40.190Z,94078.66
2017-12-10T17:56:06.277Z,94092.70
2017-12-10T17:58:32.377Z,94095.96
2017-12-10T18:00:58.843Z,94091.40
2017-12-10T18:03:24.942Z,94100.11
2017-12-10T18:05:51.018Z,94112.31
2017-12-10T18:08:17.251Z,94107.34
2017-12-10T18:10:43.320Z,94124.58
2017-12-10T18:13:09.405Z,94120.30
2017-12-10T18:15:35.483Z,94124.64
2017-12-10T18:18:01.587Z,94127.52
2017-12-10T18:20:27.727Z,94122.96
2017-12-10T18:22:53.811Z,94121.33
2017-12-10T18:25:20.235Z,94120.97
2017-12-10T18:27:46.370Z,94127.75
2017-12-10T18:30:12.486Z,94123.27
2017-12-10T18:32:38.590Z,94120.66
2017-12-10T18:35:04.738Z,94117.60
2017-12-10T18:37:30.869Z,94125.50
2017-12-10T18:39:57.034Z,94123.73
2017-12-10T18:42:23.702Z,94120.69
2017-12-10T18:44:49.875Z,94121.24
2017-12-10T18:47:15.995Z,94120.33
2017-12-10T18:49:42.591Z,94115.48
2017-12-10T18:52:08.695Z,94124.61
2017-12-10T18:54:35.251Z,94124.48
2017-12-10T18:57:01.332Z,94126.95
2017-12-10T18:59:27.519Z,94114.92
2017-12-10T19:01:53.598Z,94117.55
2017-12-10T19:04:19.751Z,94118.24
2017-12-10T19:06:45.895Z,94130.85
2017-12-10T19:09:11.962Z,94131.61
2017-12-10T19:11:38.001Z,94124.42
2017-12-10T19:14:04.077Z,94115.02
2017-12-10T19:16:30.426Z,94134.81
2017-12-10T19:18:56.479Z,94120.91
2017-12-10T19:21:22.654Z,94124.42
2017-12-10T19:23:48.852Z,94132.44
2017-12-10T19:26:14.926Z,94131.95
2017-12-10T19:28:40.982Z,94112.48
2017-12-10T19:31:07.219Z,94122.30
2017-12-10T19:33:33.322Z,94132.53
2017-12-10T19:36:00.600Z,94135.88
2017-12-10T19:38:26.893Z,94133.63
2017-12-10T19:40:54.703Z,94134.38
2017-12-10T19:43:21.546Z,94130.98
2017-12-10T19:45:47.755Z,94139.30
2017-12-10T19:48:13.974Z,94122.48
2017-12-10T19:50:41.104Z,94121.50
2017-12-10T19:53:07.191Z,94121.52
2017-12-10T19:55:33.245Z,94128.70
2017-12-10T19:57:59.727Z,94125.09
2017-12-10T20:00:26.332Z,94117.17
2017-12-10T20:02:52.350Z,94119.99
2017-12-10T20:05:18.699Z,94110.98
2017-12-10T20:07:45.251Z,94112.23
2017-12-10T20:10:11.559Z,94102.80
2017-12-10T20:12:37.770Z,94076.91
2017-12-10T20:15:03.898Z,94100.78
2017-12-10T20:17:30.511Z,94102.46
2017-12-10T20:19:56.684Z,94106.72
2017-12-10T20:22:23.313Z,94108.34
2017-12-10T20:24:49.385Z,94100.83
2017-12-10T20:27:15.770Z,94104.73
2017-12-10T20:29:41.978Z,94115.74
2017-12-10T20:32:08.095Z,94108.83
2017-12-10T20:34:34.135Z,94098.84
2017-12-10T20:37:00.672Z,94098.09
2017-12-10T20:39:26.830Z,94090.64
2017-12-10T20:41:52.899Z,94083.09
2017-12-10T20:44:19.043Z,94088.48
2017-12-10T20:46:45.167Z,94083.00
2017-12-10T20:49:11.250Z,94076.44
2017-12-10T20:51:37.327Z,94071.77
2017-12-10T20:54:03.474Z,94068.61
2017-12-10T20:56:29.551Z,94069.98
2017-12-10T20:58:55.721Z,94069.22
2017-12-10T21:01:21.775Z,94070.14
2017-12-10T21:03:47.979Z,94063.13
2017-12-10T21:06:14.203Z,94050.84
2017-12-10T21:08:40.466Z,94049.53
2017-12-10T21:13:57.995Z,94052.38
2017-12-10T21:16:24.167Z,94054.47
2017-12-10T21:18:50.452Z,94048.62
2017-12-10T21:21:16.607Z,94039.84
2017-12-10T21:23:42.705Z,94047.47
2017-12-10T21:26:08.791Z,94046.55
2017-12-10T21:28:34.854Z,94055.31
2017-12-10T21:31:01.023Z,94045.71
2017-12-10T21:33:27.133Z,94046.18
2017-12-10T21:35:53.191Z,94041.80
2017-12-10T21:38:19.606Z,94049.20
2017-12-10T21:40:45.711Z,94038.78
2017-12-10T21:43:11.830Z,94035.75
2017-12-10T21:45:37.859Z,94038.02
2017-12-10T21:48:03.918Z,94020.98
2017-12-10T21:50:30.009Z,94013.33
2017-12-10T21:52:56.091Z,93995.55
2017-12-10T21:55:22.210Z,94004.39
2017-12-10T21:57:48.234Z,94005.69
2017-12-10T22:00:14.981Z,94020.74
2017-12-10T22:02:41.182Z,94022.67
2017-12-10T22:05:07.338Z,94022.47
2017-12-10T22:07:33.295Z,94021.62
2017-12-10T22:09:59.363Z,94019.39
2017-12-10T22:12:25.433Z,94023.98
2017-12-10T22:14:51.751Z,94030.47
2017-12-10T22:17:17.771Z,94037.06
2017-12-10T22:19:43.811Z,94037.18
2017-12-10T22:22:09.979Z,94035.83
2017-12-10T22:24:36.006Z,94054.00
2017-12-10T22:27:02.094Z,94057.92
2017-12-10T22:29:28.201Z,94052.50
2017-12-10T22:31:54.435Z,94048.19
2017-12-10T22:34:20.498Z,94040.63
2017-12-10T22:36:48.411Z,94031.83
2017-12-10T22:39:14.490Z,94029.24
2017-12-10T22:41:40.527Z,94022.39
2017-12-10T22:44:06.671Z,94029.88
2017-12-10T22:46:32.773Z,94020.45
2017-12-10T22:48:58.896Z,94020.02
2017-12-10T22:51:24.973Z,94023.24
2017-12-10T22:53:51.640Z,94015.08
2017-12-10T22:56:17.793Z,94014.23
2017-12-10T22:58:43.905Z,94010.51
2017-12-10T23:01:10.018Z,94009.77
2017-12-10T23:03:36.099Z,94009.64
2017-12-10T23:06:02.243Z,94014.83
2017-12-10T23:08:28.314Z,94025.69
2017-12-10T23:10:54.394Z,94029.75
2017-12-10T23:13:32.822Z,94035.90
2017-12-10T23:15:58.873Z,94030.00
2017-12-10T23:18:24.909Z,94024.69
2017-12-10T23:20:51.054Z,94030.68
2017-12-10T23:23:17.241Z,94027.80
2017-12-10T23:25:43.333Z,94022.33
2017-12-10T23:28:09.426Z,94029.56
2017-12-10T23:30:35.477Z,94036.77
2017-12-10T23:33:01.853Z,94031.48
2017-12-10T23:35:28.082Z,94038.61
2017-12-10T23:37:54.257Z,94029.67
2017-12-10T23:40:20.398Z,94041.42
2017-12-10T23:42:46.486Z,94040.19
2017-12-10T23:45:12.564Z,94030.49
2017-12-10T23:47:38.625Z,94029.73
2017-12-10T23:50:04.763Z,94025.22
2017-12-10T23:52:30.858Z,94023.98
2017-12-10T23:54:56.947Z,94029.80
2017-12-10T23:57:23.021Z,94041.59
2017-12-10T23:59:49.083Z,94049.29
